createdAt,value
2022-10-25T00:01:45.553Z,11.20
2022-10-25T00:04:14.073Z,11.10
2022-10-25T00:06:41.768Z,11.10
2022-10-25T00:09:09.696Z,11.10
2022-10-25T00:11:37.228Z,11.10
2022-10-25T00:14:07.011Z,11.10
2022-10-25T00:16:37.260Z,11.10
2022-10-25T00:19:05.836Z,11.00
2022-10-25T00:21:33.350Z,11.00
2022-10-25T00:24:00.879Z,11.00
2022-10-25T00:26:28.350Z,10.90
2022-10-25T00:28:56.081Z,10.90
2022-10-25T00:31:24.692Z,10.90
2022-10-25T00:33:52.273Z,10.90
2022-10-25T00:36:25.545Z,10.90
2022-10-25T00:38:54.445Z,10.90
2022-10-25T00:41:24.283Z,10.80
2022-10-25T00:43:54.421Z,10.80
2022-10-25T00:46:21.987Z,10.80
2022-10-25T00:49:01.582Z,10.80
2022-10-25T00:51:38.995Z,10.80
2022-10-25T00:54:11.067Z,10.80
2022-10-25T00:56:41.027Z,10.80
2022-10-25T00:59:11.152Z,10.80
2022-10-25T01:01:39.372Z,10.80
2022-10-25T01:04:10.169Z,10.80
2022-10-25T01:06:45.602Z,10.80
2022-10-25T01:09:17.004Z,10.80
2022-10-25T01:11:44.558Z,10.80
2022-10-25T01:14:14.759Z,10.80
2022-10-25T01:16:48.720Z,10.80
2022-10-25T01:19:44.339Z,10.80
2022-10-25T01:22:11.735Z,10.80
2022-10-25T01:24:57.055Z,10.70
2022-10-25T01:27:24.489Z,10.70
2022-10-25T01:30:15.390Z,10.70
2022-10-25T01:32:50.825Z,10.70
2022-10-25T01:35:29.662Z,10.70
2022-10-25T01:38:31.913Z,10.60
2022-10-25T01:41:14.417Z,10.60
2022-10-25T01:43:46.702Z,10.60
2022-10-25T01:46:35.906Z,10.60
2022-10-25T01:49:12.665Z,10.60
2022-10-25T01:51:40.200Z,10.60
2022-10-25T01:54:23.082Z,10.60
2022-10-25T01:57:12.441Z,10.60
2022-10-25T02:00:00.326Z,10.60
2022-10-25T02:02:45.929Z,10.60
2022-10-25T02:05:41.485Z,10.60
2022-10-25T02:08:31.825Z,10.60
2022-10-25T02:11:08.004Z,10.60
2022-10-25T02:14:12.725Z,10.60
2022-10-25T02:17:09.345Z,10.70
2022-10-25T02:19:51.042Z,10.70
2022-10-25T02:22:21.198Z,10.70
2022-10-25T02:24:50.426Z,10.70
2022-10-25T02:27:20.552Z,10.70
2022-10-25T02:29:48.606Z,10.70
2022-10-25T02:32:16.068Z,10.70
2022-10-25T02:34:43.820Z,10.70
2022-10-25T02:37:11.227Z,10.70
2022-10-25T02:39:39.143Z,10.70
2022-10-25T02:42:06.638Z,10.70
2022-10-25T02:44:34.019Z,10.70
2022-10-25T02:47:01.390Z,10.70
2022-10-25T02:49:29.329Z,10.70
2022-10-25T02:51:56.700Z,10.70
2022-10-25T02:54:24.087Z,10.70
2022-10-25T02:56:52.738Z,10.70
2022-10-25T02:59:21.495Z,10.60
2022-10-25T03:01:49.367Z,10.60
2022-10-25T03:04:16.952Z,10.60
2022-10-25T03:06:44.387Z,10.60
2022-10-25T03:09:11.812Z,10.70
2022-10-25T03:11:39.433Z,10.60
2022-10-25T03:14:06.946Z,10.60
2022-10-25T03:16:34.456Z,10.70
2022-10-25T03:19:01.909Z,10.70
2022-10-25T03:21:34.350Z,10.70
2022-10-25T03:24:04.097Z,10.70
2022-10-25T03:26:31.715Z,10.70
2022-10-25T03:28:59.210Z,10.70
2022-10-25T03:31:26.707Z,10.70
2022-10-25T03:33:54.166Z,10.70
2022-10-25T03:36:21.606Z,10.70
2022-10-25T03:38:48.962Z,10.70
2022-10-25T03:41:16.495Z,10.70
2022-10-25T03:43:43.873Z,10.70
2022-10-25T03:46:11.297Z,10.70
2022-10-25T03:48:38.750Z,10.70
2022-10-25T03:51:06.265Z,10.70
2022-10-25T03:53:33.716Z,10.70
2022-10-25T03:56:01.180Z,10.60
2022-10-25T03:58:28.664Z,10.60
2022-10-25T04:00:56.337Z,10.60
2022-10-25T04:03:24.299Z,10.60
2022-10-25T04:05:51.708Z,10.60
2022-10-25T04:08:19.189Z,10.60
2022-10-25T04:10:47.294Z,10.50
2022-10-25T04:13:14.710Z,10.50
2022-10-25T04:15:42.125Z,10.50
2022-10-25T04:18:09.534Z,10.50
2022-10-25T04:20:36.995Z,10.60
2022-10-25T04:23:04.504Z,10.50
2022-10-25T04:25:32.058Z,10.60
2022-10-25T04:28:00.524Z,10.60
2022-10-25T04:30:27.986Z,10.60
2022-10-25T04:32:57.761Z,10.60
2022-10-25T04:35:25.302Z,10.60
2022-10-25T04:37:53.011Z,10.60
2022-10-25T04:40:24.030Z,10.60
2022-10-25T04:42:52.313Z,10.60
2022-10-25T04:45:19.915Z,10.70
2022-10-25T04:47:47.729Z,10.70
2022-10-25T04:50:15.602Z,10.70
2022-10-25T04:52:43.598Z,10.70
2022-10-25T04:55:11.276Z,10.70
2022-10-25T04:57:38.710Z,10.60
2022-10-25T05:00:06.720Z,10.70
2022-10-25T05:02:34.139Z,10.60
2022-10-25T05:05:01.668Z,10.60
2022-10-25T05:07:29.123Z,10.70
2022-10-25T05:09:56.563Z,10.70
2022-10-25T05:12:24.054Z,10.70
2022-10-25T05:14:51.573Z,10.70
2022-10-25T05:17:19.078Z,10.70
2022-10-25T05:19:46.535Z,10.70
2022-10-25T05:22:13.938Z,10.70
2022-10-25T05:24:41.324Z,10.70
2022-10-25T05:27:08.774Z,10.70
2022-10-25T05:29:36.338Z,10.70
2022-10-25T05:32:03.795Z,10.70
2022-10-25T05:34:31.314Z,10.80
2022-10-25T05:36:59.148Z,10.80
2022-10-25T05:39:27.133Z,10.80
2022-10-25T05:41:54.633Z,10.80
2022-10-25T05:44:22.119Z,10.90
2022-10-25T05:46:49.683Z,10.90
2022-10-25T05:49:17.183Z,10.90
2022-10-25T05:51:44.678Z,10.90
2022-10-25T05:54:14.466Z,11.00
2022-10-25T05:56:43.411Z,11.00
2022-10-25T05:59:13.101Z,11.00
2022-10-25T06:01:46.198Z,11.00
2022-10-25T06:04:14.753Z,11.10
2022-10-25T06:06:43.688Z,11.10
2022-10-25T06:09:11.689Z,11.20
2022-10-25T06:11:40.063Z,11.20
2022-10-25T06:14:09.612Z,11.30
2022-10-25T06:16:37.973Z,11.30
2022-10-25T06:19:06.466Z,11.30
2022-10-25T06:21:33.901Z,11.30
2022-10-25T06:24:01.745Z,11.40
2022-10-25T06:26:30.482Z,11.40
2022-10-25T06:29:01.314Z,11.40
2022-10-25T06:31:30.260Z,11.40
2022-10-25T06:34:00.757Z,11.40
2022-10-25T06:36:31.296Z,11.40
2022-10-25T06:39:05.152Z,11.40
2022-10-25T06:41:37.059Z,11.40
2022-10-25T06:44:07.198Z,11.40
2022-10-25T06:46:57.821Z,11.40
2022-10-25T06:49:24.893Z,11.50
2022-10-25T06:51:52.370Z,11.40
2022-10-25T06:54:19.906Z,11.40
2022-10-25T06:56:48.529Z,11.30
2022-10-25T06:59:15.977Z,11.30
2022-10-25T07:01:43.642Z,11.30
2022-10-25T07:04:11.229Z,11.30
2022-10-25T07:06:38.841Z,11.30
2022-10-25T07:09:08.950Z,11.20
2022-10-25T07:11:36.681Z,11.30
2022-10-25T07:14:04.831Z,11.20
2022-10-25T07:16:32.500Z,11.20
2022-10-25T07:19:04.343Z,11.20
2022-10-25T07:21:32.597Z,11.30
2022-10-25T07:24:00.235Z,11.30
2022-10-25T07:26:35.732Z,11.30
2022-10-25T07:29:04.188Z,11.30
2022-10-25T07:31:37.175Z,11.30
2022-10-25T07:34:09.226Z,11.40
2022-10-25T07:36:36.746Z,11.40
2022-10-25T07:39:04.403Z,11.40
2022-10-25T07:41:32.009Z,11.40
2022-10-25T07:43:59.669Z,11.50
2022-10-25T07:46:27.189Z,11.50
2022-10-25T07:48:54.711Z,11.50
2022-10-25T07:51:22.304Z,11.60
2022-10-25T07:53:50.174Z,11.60
2022-10-25T07:56:23.087Z,11.60
2022-10-25T07:58:54.306Z,11.60
2022-10-25T08:01:24.856Z,11.70
2022-10-25T08:03:54.028Z,11.70
2022-10-25T08:06:23.573Z,11.80
2022-10-25T08:08:51.343Z,11.80
2022-10-25T08:11:18.960Z,11.80
2022-10-25T08:13:50.117Z,11.90
2022-10-25T08:16:17.532Z,11.90
2022-10-25T08:18:44.903Z,12.00
2022-10-25T08:21:12.451Z,12.00
2022-10-25T08:23:39.996Z,12.10
2022-10-25T08:26:07.641Z,12.10
2022-10-25T08:28:35.171Z,12.10
2022-10-25T08:31:04.448Z,12.20
2022-10-25T08:33:33.063Z,12.20
2022-10-25T08:36:02.505Z,12.20
2022-10-25T08:38:30.392Z,12.20
2022-10-25T08:41:21.564Z,12.20
2022-10-25T08:44:15.138Z,12.20
2022-10-25T08:46:48.436Z,12.20
2022-10-25T08:49:44.360Z,12.20
2022-10-25T08:52:43.417Z,12.20
2022-10-25T08:55:20.613Z,12.30
2022-10-25T08:57:50.843Z,12.30
2022-10-25T09:00:22.686Z,12.30
2022-10-25T09:02:58.195Z,12.40
2022-10-25T09:06:01.047Z,12.40
2022-10-25T09:08:47.128Z,12.50
2022-10-25T09:11:39.722Z,12.60
2022-10-25T09:14:23.428Z,12.60
2022-10-25T09:16:52.675Z,12.70
2022-10-25T09:19:31.642Z,12.70
2022-10-25T09:22:13.418Z,12.70
2022-10-25T09:25:09.473Z,12.70
2022-10-25T09:27:48.642Z,12.60
2022-10-25T09:30:16.559Z,12.50
2022-10-25T09:32:56.889Z,12.50
2022-10-25T09:35:40.765Z,12.40
2022-10-25T09:38:12.895Z,12.40
2022-10-25T09:41:02.269Z,12.40
2022-10-25T09:44:01.652Z,12.40
2022-10-25T09:46:47.479Z,12.20
2022-10-25T09:49:33.833Z,12.20
2022-10-25T09:52:07.221Z,12.10
2022-10-25T09:55:00.679Z,12.10
2022-10-25T09:57:29.055Z,12.10
2022-10-25T09:59:56.924Z,12.10
2022-10-25T10:02:27.167Z,12.10
2022-10-25T10:04:54.984Z,12.10
2022-10-25T10:07:34.832Z,12.00
2022-10-25T10:10:05.860Z,12.00
2022-10-25T10:12:44.393Z,12.00
2022-10-25T10:15:41.823Z,11.90
2022-10-25T10:18:24.274Z,11.90
2022-10-25T10:21:01.766Z,11.90
2022-10-25T10:23:51.675Z,12.00
2022-10-25T10:26:21.822Z,12.00
2022-10-25T10:28:55.018Z,12.00
2022-10-25T10:31:23.008Z,12.00
2022-10-25T10:33:51.872Z,12.00
2022-10-25T10:36:28.298Z,12.00
2022-10-25T10:39:20.475Z,12.00
2022-10-25T10:42:16.036Z,12.10
2022-10-25T10:45:07.929Z,12.10
2022-10-25T10:47:51.392Z,12.10
2022-10-25T10:50:25.761Z,12.10
2022-10-25T10:53:13.971Z,12.10
2022-10-25T10:55:53.217Z,12.10
2022-10-25T10:58:39.213Z,12.10
2022-10-25T11:01:06.763Z,12.10
2022-10-25T11:03:58.834Z,12.10
2022-10-25T11:06:30.487Z,12.10
2022-10-25T11:09:13.104Z,12.00
2022-10-25T11:11:41.543Z,12.00
2022-10-25T11:14:16.894Z,12.00
2022-10-25T11:17:07.873Z,12.00
2022-10-25T11:20:09.950Z,12.10
2022-10-25T11:22:42.617Z,12.10
2022-10-25T11:25:25.674Z,12.20
2022-10-25T11:28:23.827Z,12.20
2022-10-25T11:31:21.018Z,12.20
2022-10-25T11:34:29.281Z,12.20
2022-10-25T11:37:27.852Z,12.20
2022-10-25T11:40:02.507Z,12.30
2022-10-25T11:42:56.409Z,12.30
2022-10-25T11:45:39.666Z,12.40
2022-10-25T11:48:37.690Z,12.30
2022-10-25T11:51:29.022Z,12.30
2022-10-25T11:54:05.326Z,12.30
2022-10-25T11:57:04.858Z,12.40
2022-10-25T11:59:35.873Z,12.40
2022-10-25T12:02:35.698Z,12.40
2022-10-25T12:05:12.359Z,12.40
2022-10-25T12:07:50.718Z,12.40
2022-10-25T12:10:35.055Z,12.40
2022-10-25T12:13:12.927Z,12.40
2022-10-25T12:15:46.758Z,12.40
2022-10-25T12:18:26.195Z,12.40
2022-10-25T12:20:55.753Z,12.40
2022-10-25T12:23:26.065Z,12.50
2022-10-25T12:25:58.569Z,12.40
2022-10-25T12:28:49.393Z,12.50
2022-10-25T12:31:21.711Z,12.40
2022-10-25T12:34:07.059Z,12.50
2022-10-25T12:36:39.041Z,12.50
2022-10-25T12:39:30.745Z,12.50
2022-10-25T12:42:20.455Z,12.60
2022-10-25T12:45:12.046Z,12.60
2022-10-25T12:48:13.445Z,12.60
2022-10-25T12:51:00.909Z,12.60
2022-10-25T12:53:52.242Z,12.60
2022-10-25T12:56:43.435Z,12.60
2022-10-25T12:59:28.636Z,12.60
2022-10-25T13:02:34.068Z,12.60
2022-10-25T13:05:28.405Z,12.50
2022-10-25T13:07:59.180Z,12.50
2022-10-25T13:10:27.143Z,12.50
2022-10-25T13:13:07.997Z,12.50
2022-10-25T13:15:53.303Z,12.50
2022-10-25T13:18:32.735Z,12.50
2022-10-25T13:21:08.869Z,12.50
2022-10-25T13:23:51.660Z,12.50
2022-10-25T13:26:21.990Z,12.50
2022-10-25T13:28:50.411Z,12.50
2022-10-25T13:31:35.770Z,12.50
2022-10-25T13:34:14.819Z,12.50
2022-10-25T13:36:54.236Z,12.50
2022-10-25T13:39:37.467Z,12.50
2022-10-25T13:42:17.059Z,12.50
2022-10-25T13:45:02.668Z,12.50
2022-10-25T13:47:46.560Z,12.60
2022-10-25T13:50:33.479Z,12.60
2022-10-25T13:53:34.323Z,12.60
2022-10-25T13:56:17.457Z,12.50
2022-10-25T13:58:48.523Z,12.60
2022-10-25T14:01:15.954Z,12.60
2022-10-25T14:04:02.193Z,12.60
2022-10-25T14:06:37.923Z,12.60
2022-10-25T14:09:23.912Z,12.60
2022-10-25T14:11:53.548Z,12.60
2022-10-25T14:14:35.024Z,12.60
2022-10-25T14:17:11.559Z,12.60
2022-10-25T14:19:45.568Z,12.60
2022-10-25T14:22:23.331Z,12.50
2022-10-25T14:24:54.238Z,12.60
2022-10-25T14:27:39.836Z,12.60
2022-10-25T14:30:29.098Z,12.60
2022-10-25T14:33:02.010Z,12.60
2022-10-25T14:35:36.542Z,12.50
2022-10-25T14:38:15.678Z,12.50
2022-10-25T14:40:51.264Z,12.50
2022-10-25T14:43:26.747Z,12.50
2022-10-25T14:46:13.541Z,12.50
2022-10-25T14:48:43.068Z,12.50
2022-10-25T14:51:37.765Z,12.50
2022-10-25T14:54:08.093Z,12.40
2022-10-25T14:56:37.763Z,12.40
2022-10-25T14:59:14.015Z,12.40
2022-10-25T15:01:51.793Z,12.40
2022-10-25T15:04:38.031Z,12.30
2022-10-25T15:07:07.548Z,12.30
2022-10-25T15:09:42.718Z,12.30
2022-10-25T15:12:13.406Z,12.30
2022-10-25T15:14:41.815Z,12.30
2022-10-25T15:17:30.771Z,12.30
2022-10-25T15:20:16.423Z,12.30
2022-10-25T15:22:49.331Z,12.30
2022-10-25T15:25:38.839Z,12.30
2022-10-25T15:28:13.946Z,12.30
2022-10-25T15:30:49.906Z,12.30
2022-10-25T15:33:25.439Z,12.30
2022-10-25T15:35:56.064Z,12.20
2022-10-25T15:38:42.119Z,12.30
2022-10-25T15:41:14.996Z,12.20
2022-10-25T15:43:42.431Z,12.30
2022-10-25T15:46:33.241Z,12.20
2022-10-25T15:49:04.868Z,12.20
2022-10-25T15:51:52.927Z,12.20
2022-10-25T15:54:22.949Z,12.20
2022-10-25T15:56:51.856Z,12.20
2022-10-25T15:59:19.234Z,12.20
2022-10-25T16:01:51.150Z,12.10
2022-10-25T16:04:19.654Z,12.10
2022-10-25T16:06:48.247Z,12.10
2022-10-25T16:09:15.653Z,12.10
2022-10-25T16:11:48.649Z,12.10
2022-10-25T16:14:23.752Z,12.00
2022-10-25T16:16:51.599Z,12.10
2022-10-25T16:19:20.347Z,12.00
2022-10-25T16:21:47.881Z,12.00
2022-10-25T16:24:15.341Z,12.00
2022-10-25T16:26:45.071Z,12.00
2022-10-25T16:29:17.262Z,12.00
2022-10-25T16:31:45.028Z,12.00
2022-10-25T16:34:12.826Z,11.90
2022-10-25T16:36:43.270Z,12.00
2022-10-25T16:39:11.580Z,12.00
2022-10-25T16:41:44.884Z,11.90
2022-10-25T16:44:13.984Z,11.90
2022-10-25T16:46:41.629Z,12.00
2022-10-25T16:49:09.660Z,11.90
2022-10-25T16:51:38.344Z,11.90
2022-10-25T16:54:06.414Z,11.90
2022-10-25T16:56:33.952Z,11.80
2022-10-25T16:59:01.527Z,11.90
2022-10-25T17:01:40.003Z,11.80
2022-10-25T17:04:10.686Z,11.80
2022-10-25T17:06:42.357Z,11.80
2022-10-25T17:09:11.348Z,11.90
2022-10-25T17:11:38.881Z,11.90
2022-10-25T17:14:06.790Z,11.90
2022-10-25T17:16:34.214Z,11.80
2022-10-25T17:19:03.403Z,11.90
2022-10-25T17:21:31.648Z,11.90
2022-10-25T17:23:59.699Z,11.90
2022-10-25T17:26:27.071Z,11.90
2022-10-25T17:28:54.722Z,11.90
2022-10-25T17:31:22.113Z,11.90
2022-10-25T17:33:49.551Z,12.00
2022-10-25T17:36:18.865Z,11.90
2022-10-25T17:38:46.576Z,11.90
2022-10-25T17:41:14.950Z,11.90
2022-10-25T17:43:42.706Z,11.90
2022-10-25T17:46:18.967Z,11.90
2022-10-25T17:48:47.167Z,11.90
2022-10-25T17:51:15.551Z,11.90
2022-10-25T17:53:43.098Z,11.90
2022-10-25T17:56:18.688Z,11.90
2022-10-25T17:58:47.606Z,12.00
2022-10-25T18:01:20.935Z,11.90
2022-10-25T18:03:50.013Z,11.90
2022-10-25T18:06:19.673Z,11.90
2022-10-25T18:08:52.308Z,11.90
2022-10-25T18:11:24.358Z,11.90
2022-10-25T18:13:58.107Z,11.90
2022-10-25T18:16:27.190Z,11.90
2022-10-25T18:18:57.082Z,11.90
2022-10-25T18:21:25.372Z,11.90
2022-10-25T18:23:57.796Z,11.80
2022-10-25T18:26:25.811Z,11.80
2022-10-25T18:28:53.831Z,11.90
2022-10-25T18:31:21.422Z,11.80
2022-10-25T18:33:49.188Z,11.90
2022-10-25T18:36:20.003Z,11.80
2022-10-25T18:38:49.376Z,11.90
2022-10-25T18:41:28.994Z,11.80
2022-10-25T18:43:57.005Z,11.80
2022-10-25T18:46:26.538Z,11.80
2022-10-25T18:48:54.574Z,11.90
2022-10-25T18:51:24.231Z,11.90
2022-10-25T18:54:00.205Z,11.80
2022-10-25T18:56:29.427Z,11.90
2022-10-25T18:58:59.325Z,11.80
2022-10-25T19:01:33.797Z,11.80
2022-10-25T19:04:03.946Z,11.90
2022-10-25T19:06:32.679Z,11.90
2022-10-25T19:09:00.424Z,11.90
2022-10-25T19:11:27.982Z,11.90
2022-10-25T19:13:56.710Z,11.90
2022-10-25T19:16:24.403Z,11.90
2022-10-25T19:18:52.457Z,11.90
2022-10-25T19:21:20.034Z,11.90
2022-10-25T19:23:49.551Z,11.90
2022-10-25T19:26:19.934Z,11.90
2022-10-25T19:28:54.622Z,11.90
2022-10-25T19:31:28.490Z,11.90
2022-10-25T19:34:00.624Z,11.90
2022-10-25T19:36:30.372Z,11.90
2022-10-25T19:39:01.755Z,11.90
2022-10-25T19:41:30.702Z,11.90
2022-10-25T19:43:59.365Z,11.90
2022-10-25T19:46:26.820Z,11.90
2022-10-25T19:48:56.312Z,11.90
2022-10-25T19:51:23.893Z,11.90
2022-10-25T19:53:51.517Z,11.80
2022-10-25T19:56:25.259Z,11.90
2022-10-25T19:58:52.744Z,11.90
2022-10-25T20:01:24.975Z,11.80
2022-10-25T20:03:55.839Z,11.80
2022-10-25T20:06:28.334Z,11.80
2022-10-25T20:08:56.185Z,11.80
2022-10-25T20:11:24.687Z,11.80
2022-10-25T20:13:57.290Z,11.80
2022-10-25T20:16:25.795Z,11.80
2022-10-25T20:18:53.692Z,11.80
2022-10-25T20:21:24.585Z,11.70
2022-10-25T20:23:58.991Z,11.70
2022-10-25T20:26:29.985Z,11.70
2022-10-25T20:29:00.540Z,11.70
2022-10-25T20:31:30.629Z,11.70
2022-10-25T20:33:58.426Z,11.70
2022-10-25T20:36:26.267Z,11.70
2022-10-25T20:38:53.739Z,11.70
2022-10-25T20:41:24.706Z,11.70
2022-10-25T20:43:54.972Z,11.70
2022-10-25T20:46:24.329Z,11.70
2022-10-25T20:48:51.970Z,11.70
2022-10-25T20:51:19.804Z,11.70
2022-10-25T20:53:48.829Z,11.70
2022-10-25T20:56:17.766Z,11.70
2022-10-25T20:58:45.766Z,11.70
2022-10-25T21:01:13.406Z,11.70
2022-10-25T21:03:41.338Z,11.60
2022-10-25T21:06:14.613Z,11.60
2022-10-25T21:08:42.298Z,11.60
2022-10-25T21:11:12.513Z,11.60
2022-10-25T21:13:40.308Z,11.60
2022-10-25T21:16:13.060Z,11.60
2022-10-25T21:18:41.841Z,11.60
2022-10-25T21:21:15.608Z,11.60
2022-10-25T21:23:43.027Z,11.60
2022-10-25T21:26:10.734Z,11.60
2022-10-25T21:28:40.477Z,11.60
2022-10-25T21:31:14.279Z,11.60
2022-10-25T21:33:50.199Z,11.60
2022-10-25T21:36:20.622Z,11.60
2022-10-25T21:38:48.771Z,11.60
2022-10-25T21:41:19.938Z,11.60
2022-10-25T21:43:48.823Z,11.60
2022-10-25T21:46:18.010Z,11.50
2022-10-25T21:48:48.055Z,11.60
2022-10-25T21:51:15.833Z,11.50
2022-10-25T21:53:43.619Z,11.50
2022-10-25T21:56:19.647Z,11.50
2022-10-25T21:58:50.040Z,11.50
2022-10-25T22:01:19.579Z,11.50
2022-10-25T22:03:47.187Z,11.50
2022-10-25T22:06:20.757Z,11.50
2022-10-25T22:08:49.189Z,11.50
2022-10-25T22:11:22.502Z,11.50
2022-10-25T22:13:55.651Z,11.50
2022-10-25T22:16:23.182Z,11.60
2022-10-25T22:19:03.152Z,11.60
2022-10-25T22:21:33.927Z,11.60
2022-10-25T22:24:01.716Z,11.70
2022-10-25T22:26:29.279Z,11.70
2022-10-25T22:28:58.318Z,11.70
2022-10-25T22:31:28.558Z,11.80
2022-10-25T22:33:58.579Z,11.70
2022-10-25T22:36:28.189Z,11.80
2022-10-25T22:38:57.060Z,11.80
2022-10-25T22:41:27.209Z,11.80
2022-10-25T22:43:54.954Z,11.90
2022-10-25T22:46:25.584Z,11.90
2022-10-25T22:48:54.803Z,11.90
2022-10-25T22:51:23.652Z,11.90
2022-10-25T22:53:52.026Z,11.90
2022-10-25T22:56:28.151Z,12.00
2022-10-25T22:58:57.576Z,12.00
2022-10-25T23:01:27.559Z,12.00
2022-10-25T23:03:56.412Z,12.00
2022-10-25T23:06:29.045Z,12.00
2022-10-25T23:08:58.843Z,12.00
2022-10-25T23:11:34.080Z,12.00
2022-10-25T23:14:02.337Z,12.00
2022-10-25T23:16:30.083Z,12.00
2022-10-25T23:18:57.940Z,12.10
2022-10-25T23:21:27.630Z,12.10
2022-10-25T23:23:56.341Z,12.10
2022-10-25T23:26:34.884Z,12.10
2022-10-25T23:29:03.553Z,12.20
2022-10-25T23:31:31.761Z,12.20
2022-10-25T23:34:00.825Z,12.20
2022-10-25T23:36:30.665Z,12.20
2022-10-25T23:38:58.617Z,12.20
2022-10-25T23:41:26.173Z,12.20
2022-10-25T23:43:53.592Z,12.30
2022-10-25T23:46:21.185Z,12.30
2022-10-25T23:48:48.664Z,12.30
2022-10-25T23:51:18.356Z,12.30
2022-10-25T23:53:45.896Z,12.30
2022-10-25T23:56:14.246Z,12.30
2022-10-25T23:58:41.869Z,12.30
